createdAt,value
2019-05-18T00:00:56.471Z,7.70
2019-05-18T00:03:25.870Z,5.73
2019-05-18T00:05:55.303Z,5.45
2019-05-18T00:08:24.678Z,4.78
2019-05-18T00:10:54.069Z,5.00
2019-05-18T00:13:23.507Z,5.33
2019-05-18T00:15:52.899Z,5.23
2019-05-18T00:18:22.323Z,5.85
2019-05-18T00:20:52.227Z,4.90
2019-05-18T00:23:21.638Z,5.87
2019-05-18T00:25:51.075Z,5.13
2019-05-18T00:28:20.504Z,5.75
2019-05-18T00:30:49.943Z,7.27
2019-05-18T00:33:19.339Z,8.53
2019-05-18T00:35:48.776Z,6.70
2019-05-18T00:38:18.163Z,6.43
2019-05-18T00:40:47.630Z,7.25
2019-05-18T00:43:17.301Z,6.40
2019-05-18T00:45:46.756Z,7.47
2019-05-18T00:48:16.184Z,7.58
2019-05-18T00:50:45.593Z,6.40
2019-05-18T00:53:15.000Z,7.13
2019-05-18T00:55:44.392Z,7.97
2019-05-18T00:58:13.822Z,6.10
2019-05-18T01:00:43.318Z,7.43
2019-05-18T01:03:12.718Z,6.33
2019-05-18T01:05:42.126Z,7.60
2019-05-18T01:08:11.561Z,6.13
2019-05-18T01:10:40.999Z,7.17
2019-05-18T01:13:10.418Z,6.93
2019-05-18T01:15:39.830Z,10.47
2019-05-18T01:18:09.253Z,7.40
2019-05-18T01:20:38.775Z,7.30
2019-05-18T01:23:08.187Z,6.97
2019-05-18T01:25:37.669Z,7.20
2019-05-18T01:28:07.030Z,7.20
2019-05-18T01:30:36.522Z,7.43
2019-05-18T01:33:05.956Z,8.57
2019-05-18T01:35:35.482Z,7.23
2019-05-18T01:38:04.885Z,7.73
2019-05-18T01:40:34.341Z,8.35
2019-05-18T01:43:03.883Z,10.90
2019-05-18T01:45:33.295Z,8.43
2019-05-18T01:48:13.210Z,8.33
2019-05-18T01:50:33.752Z,9.50
2019-05-18T01:53:03.177Z,9.00
2019-05-18T01:55:32.580Z,15.60
2019-05-18T01:58:02.002Z,9.57
2019-05-18T02:00:31.433Z,10.40
2019-05-18T02:03:00.804Z,9.53
2019-05-18T02:05:30.191Z,8.43
2019-05-18T02:07:59.698Z,9.60
2019-05-18T02:10:29.071Z,8.97
2019-05-18T02:12:58.484Z,8.83
2019-05-18T02:15:27.887Z,9.37
2019-05-18T02:17:57.219Z,9.13
2019-05-18T02:20:26.691Z,9.50
2019-05-18T02:22:56.044Z,9.43
2019-05-18T02:25:25.476Z,15.67
2019-05-18T02:27:54.872Z,10.67
2019-05-18T02:30:24.295Z,10.20
2019-05-18T02:32:53.696Z,9.47
2019-05-18T02:35:23.136Z,9.07
2019-05-18T02:37:54.114Z,9.83
2019-05-18T02:40:23.519Z,11.07
2019-05-18T02:42:52.971Z,10.70
2019-05-18T02:45:22.375Z,12.37
2019-05-18T02:47:51.796Z,12.73
2019-05-18T02:50:21.312Z,10.87
2019-05-18T02:52:50.755Z,10.80
2019-05-18T02:55:20.232Z,10.70
2019-05-18T02:57:49.624Z,12.70
2019-05-18T03:00:20.696Z,9.93
2019-05-18T03:02:50.117Z,14.83
2019-05-18T03:05:19.703Z,20.10
2019-05-18T03:07:49.152Z,15.60
2019-05-18T03:10:18.561Z,19.13
2019-05-18T03:12:48.160Z,16.63
2019-05-18T03:15:17.559Z,12.70
2019-05-18T03:17:46.948Z,11.87
2019-05-18T03:20:16.466Z,10.90
2019-05-18T03:22:45.953Z,14.53
2019-05-18T03:25:15.825Z,11.33
2019-05-18T03:27:45.211Z,11.50
2019-05-18T03:30:15.516Z,15.77
2019-05-18T03:32:44.929Z,9.90
2019-05-18T03:35:14.509Z,15.77
2019-05-18T03:37:43.887Z,13.40
2019-05-18T03:40:13.580Z,11.07
2019-05-18T03:42:43.023Z,29.17
2019-05-18T03:45:12.530Z,13.80
2019-05-18T03:47:41.957Z,19.60
2019-05-18T03:50:11.683Z,10.93
2019-05-18T03:52:41.178Z,10.33
2019-05-18T03:55:10.984Z,10.83
2019-05-18T03:57:40.413Z,10.40
2019-05-18T04:00:10.164Z,10.80
2019-05-18T04:02:39.580Z,10.80
2019-05-18T04:05:09.001Z,11.37
2019-05-18T04:07:38.508Z,10.77
2019-05-18T04:10:08.236Z,11.93
2019-05-18T04:12:37.697Z,10.03
2019-05-18T04:15:07.333Z,9.93
2019-05-18T04:17:36.755Z,9.83
2019-05-18T04:20:06.293Z,9.17
2019-05-18T04:22:35.728Z,10.97
2019-05-18T04:25:05.150Z,9.53
2019-05-18T04:27:34.587Z,10.33
2019-05-18T04:30:04.426Z,9.70
2019-05-18T04:32:33.834Z,10.03
2019-05-18T04:35:03.342Z,11.63
2019-05-18T04:37:32.751Z,9.27
2019-05-18T04:40:02.200Z,9.10
2019-05-18T04:42:31.630Z,9.77
2019-05-18T04:45:01.116Z,8.93
2019-05-18T04:47:30.549Z,8.83
2019-05-18T04:50:05.231Z,9.30
2019-05-18T04:52:31.038Z,8.70
2019-05-18T04:55:00.425Z,8.17
2019-05-18T04:57:29.829Z,8.93
2019-05-18T04:59:59.225Z,8.30
2019-05-18T05:02:28.734Z,9.60
2019-05-18T05:04:58.137Z,7.97
2019-05-18T05:07:27.566Z,11.17
2019-05-18T05:09:57.054Z,8.57
2019-05-18T05:12:26.671Z,8.60
2019-05-18T05:14:56.400Z,9.43
2019-05-18T05:17:25.861Z,9.07
2019-05-18T05:19:55.391Z,9.33
2019-05-18T05:22:24.791Z,9.57
2019-05-18T05:24:54.237Z,11.03
2019-05-18T05:27:23.651Z,10.20
2019-05-18T05:29:53.040Z,10.20
2019-05-18T05:32:22.513Z,9.90
2019-05-18T05:34:51.954Z,10.40
2019-05-18T05:37:21.375Z,15.53
2019-05-18T05:39:50.772Z,10.40
2019-05-18T05:42:20.242Z,13.13
2019-05-18T05:44:49.664Z,10.47
2019-05-18T05:47:19.137Z,12.17
2019-05-18T05:49:48.670Z,11.47
2019-05-18T05:52:18.087Z,11.60
2019-05-18T05:54:47.510Z,11.20
2019-05-18T05:57:16.956Z,11.50
2019-05-18T05:59:46.349Z,10.80
2019-05-18T06:02:15.748Z,15.00
2019-05-18T06:04:45.185Z,12.10
2019-05-18T06:07:14.589Z,10.87
2019-05-18T06:09:44.011Z,13.90
2019-05-18T06:12:13.393Z,13.67
2019-05-18T06:14:43.330Z,15.25
2019-05-18T06:17:13.080Z,11.83
2019-05-18T06:19:43.448Z,13.43
2019-05-18T06:22:12.876Z,12.73
2019-05-18T06:24:42.279Z,13.93
2019-05-18T06:27:11.702Z,12.58
2019-05-18T06:29:41.096Z,16.00
2019-05-18T06:32:10.512Z,12.60
2019-05-18T06:34:39.921Z,12.20
2019-05-18T06:37:09.350Z,11.30
2019-05-18T06:39:38.763Z,12.20
2019-05-18T06:42:10.762Z,12.13
2019-05-18T06:44:39.154Z,11.50
2019-05-18T06:47:08.600Z,11.68
2019-05-18T06:49:38.040Z,12.00
2019-05-18T06:52:07.430Z,12.53
2019-05-18T06:54:36.867Z,12.45
2019-05-18T06:57:08.352Z,11.70
2019-05-18T06:59:38.583Z,11.07
2019-05-18T07:02:07.982Z,11.93
2019-05-18T07:04:37.394Z,11.48
2019-05-18T07:07:06.833Z,11.88
2019-05-18T07:09:36.367Z,11.45
2019-05-18T07:12:05.836Z,12.25
2019-05-18T07:14:35.267Z,12.35
2019-05-18T07:17:04.717Z,12.88
2019-05-18T07:19:34.192Z,12.25
2019-05-18T07:22:03.676Z,18.48
2019-05-18T07:24:33.842Z,13.35
2019-05-18T07:27:03.296Z,12.15
2019-05-18T07:29:32.767Z,12.98
2019-05-18T07:32:02.173Z,11.50
2019-05-18T07:34:31.595Z,14.87
2019-05-18T07:37:02.087Z,11.53
2019-05-18T07:39:31.500Z,11.88
2019-05-18T07:42:01.227Z,11.97
2019-05-18T07:44:30.963Z,12.00
2019-05-18T07:47:00.519Z,12.20
2019-05-18T07:49:30.409Z,12.55
2019-05-18T07:51:59.992Z,12.68
2019-05-18T07:54:29.540Z,11.63
2019-05-18T07:56:58.931Z,12.70
2019-05-18T07:59:28.403Z,12.40
2019-05-18T08:01:57.858Z,13.43
2019-05-18T08:04:27.310Z,11.80
2019-05-18T08:06:56.764Z,11.35
2019-05-18T08:09:26.172Z,13.03
2019-05-18T08:11:55.619Z,11.73
2019-05-18T08:14:25.055Z,12.40
2019-05-18T08:16:54.511Z,10.72
2019-05-18T08:19:23.953Z,10.90
2019-05-18T08:21:54.275Z,11.70
2019-05-18T08:24:23.724Z,12.37
2019-05-18T08:26:53.293Z,11.48
2019-05-18T08:29:22.733Z,11.68
2019-05-18T08:31:52.271Z,10.78
2019-05-18T08:34:21.698Z,11.05
2019-05-18T08:36:51.123Z,10.08
2019-05-18T08:39:20.567Z,10.93
2019-05-18T08:41:50.008Z,10.40
2019-05-18T08:44:19.455Z,10.50
2019-05-18T08:46:48.927Z,10.18
2019-05-18T08:49:18.988Z,10.70
2019-05-18T08:51:48.402Z,10.00
2019-05-18T08:54:17.843Z,9.65
2019-05-18T08:56:47.272Z,10.00
2019-05-18T08:59:16.731Z,9.23
2019-05-18T09:01:46.251Z,9.35
2019-05-18T09:04:15.667Z,12.63
2019-05-18T09:06:45.067Z,10.40
2019-05-18T09:09:14.496Z,10.68
2019-05-18T09:11:43.884Z,9.13
2019-05-18T09:14:13.369Z,8.83
2019-05-18T09:16:42.804Z,11.05
2019-05-18T09:19:12.211Z,10.15
2019-05-18T09:21:41.695Z,9.98
2019-05-18T09:24:11.015Z,10.60
2019-05-18T09:26:40.435Z,10.38
2019-05-18T09:29:09.816Z,10.55
2019-05-18T09:31:39.233Z,10.32
2019-05-18T09:34:08.694Z,9.50
2019-05-18T09:36:38.109Z,9.93
2019-05-18T09:39:09.064Z,9.90
2019-05-18T09:41:38.575Z,11.53
2019-05-18T09:44:07.965Z,9.65
2019-05-18T09:46:37.469Z,10.45
2019-05-18T09:49:06.891Z,10.65
2019-05-18T09:51:36.291Z,10.80
2019-05-18T09:54:05.815Z,10.43
2019-05-18T09:56:35.202Z,10.53
2019-05-18T09:59:04.621Z,11.12
2019-05-18T10:01:34.020Z,10.82
2019-05-18T10:04:03.439Z,11.33
2019-05-18T10:06:32.827Z,11.10
2019-05-18T10:09:02.333Z,11.10
2019-05-18T10:11:38.266Z,10.70
2019-05-18T10:14:02.817Z,11.70
2019-05-18T10:16:32.257Z,12.00
2019-05-18T10:19:01.664Z,11.60
2019-05-18T10:21:31.161Z,11.55
2019-05-18T10:24:00.679Z,11.75
2019-05-18T10:26:30.086Z,12.63
2019-05-18T10:28:59.477Z,11.38
2019-05-18T10:31:28.904Z,11.10
2019-05-18T10:33:58.284Z,13.20
2019-05-18T10:36:27.750Z,11.85
2019-05-18T10:38:57.123Z,10.98
2019-05-18T10:41:26.549Z,12.05
2019-05-18T10:43:55.959Z,12.13
2019-05-18T10:46:25.436Z,10.28
2019-05-18T10:48:54.926Z,11.90
2019-05-18T10:51:24.355Z,11.83
2019-05-18T10:53:53.800Z,10.93
2019-05-18T10:56:23.187Z,10.75
2019-05-18T10:58:52.635Z,10.82
2019-05-18T11:01:22.035Z,11.00
2019-05-18T11:03:51.453Z,11.15
2019-05-18T11:06:20.827Z,10.60
2019-05-18T11:08:50.300Z,11.28
2019-05-18T11:11:19.663Z,10.10
2019-05-18T11:13:49.107Z,9.30
2019-05-18T11:16:18.475Z,10.50
2019-05-18T11:18:47.859Z,9.83
2019-05-18T11:21:17.260Z,9.58
2019-05-18T11:23:48.116Z,9.85
2019-05-18T11:26:17.584Z,10.48
2019-05-18T11:28:46.963Z,8.33
2019-05-18T11:31:16.401Z,8.60
2019-05-18T11:33:45.814Z,8.83
2019-05-18T11:36:15.207Z,7.92
2019-05-18T11:38:44.627Z,7.40
2019-05-18T11:41:14.053Z,9.50
2019-05-18T11:43:43.437Z,9.68
2019-05-18T11:46:12.984Z,8.50
2019-05-18T11:48:42.402Z,9.20
2019-05-18T11:51:11.786Z,8.93
2019-05-18T11:53:41.227Z,8.45
2019-05-18T11:56:10.609Z,9.10
2019-05-18T11:58:40.011Z,8.53
2019-05-18T12:01:09.417Z,9.50
2019-05-18T12:03:38.806Z,8.03
2019-05-18T12:06:08.132Z,8.85
2019-05-18T12:08:37.552Z,8.70
2019-05-18T12:11:06.938Z,8.03
2019-05-18T12:13:38.333Z,7.85
2019-05-18T12:16:07.715Z,8.98
2019-05-18T12:18:37.105Z,8.43
2019-05-18T12:21:06.715Z,8.90
2019-05-18T12:23:36.352Z,8.80
2019-05-18T12:26:05.956Z,7.92
2019-05-18T12:28:35.319Z,8.38
2019-05-18T12:31:04.747Z,8.80
2019-05-18T12:33:34.135Z,6.72
2019-05-18T12:36:03.648Z,6.30
2019-05-18T12:38:33.039Z,6.00
2019-05-18T12:41:02.516Z,7.03
2019-05-18T12:43:31.870Z,7.08
2019-05-18T12:46:01.289Z,7.22
2019-05-18T12:48:30.830Z,6.10
2019-05-18T12:51:00.214Z,5.62
2019-05-18T12:53:29.607Z,5.33
2019-05-18T12:55:59.025Z,5.30
2019-05-18T12:58:28.448Z,6.10
2019-05-18T13:00:57.817Z,5.62
2019-05-18T13:03:27.212Z,7.00
2019-05-18T13:05:56.683Z,5.78
2019-05-18T13:08:26.040Z,5.92
2019-05-18T13:10:55.461Z,4.85
2019-05-18T13:13:24.903Z,4.78
2019-05-18T13:15:54.306Z,5.08
2019-05-18T13:18:23.704Z,5.37
2019-05-18T13:20:53.295Z,4.90
2019-05-18T13:23:22.669Z,4.78
2019-05-18T13:25:52.107Z,5.05
2019-05-18T13:28:21.519Z,5.20
2019-05-18T13:30:50.902Z,4.58
2019-05-18T13:33:20.303Z,5.33
2019-05-18T13:35:49.696Z,5.20
2019-05-18T13:38:19.128Z,5.25
2019-05-18T13:40:48.522Z,10.95
2019-05-18T13:43:17.916Z,3.70
2019-05-18T13:45:47.400Z,3.55
2019-05-18T13:48:16.879Z,4.95
2019-05-18T13:50:46.488Z,5.37
2019-05-18T13:53:15.994Z,5.62
2019-05-18T13:55:45.446Z,4.30
2019-05-18T13:58:14.879Z,2.87
2019-05-18T14:00:44.427Z,3.58
2019-05-18T14:03:14.084Z,2.75
2019-05-18T14:05:43.606Z,3.55
2019-05-18T14:08:15.859Z,3.47
2019-05-18T14:10:44.565Z,4.80
2019-05-18T14:13:13.991Z,5.00
2019-05-18T14:15:43.396Z,4.60
2019-05-18T14:18:13.030Z,4.72
2019-05-18T14:20:42.530Z,5.08
2019-05-18T14:23:12.052Z,5.10
2019-05-18T14:25:41.627Z,5.37
2019-05-18T14:28:11.415Z,4.58
2019-05-18T14:30:40.778Z,4.75
2019-05-18T14:33:10.209Z,3.80
2019-05-18T14:35:39.586Z,2.95
2019-05-18T14:38:09.039Z,3.45
2019-05-18T14:40:38.482Z,2.90
2019-05-18T14:43:07.907Z,3.72
2019-05-18T14:45:37.286Z,3.95
2019-05-18T14:48:07.779Z,3.47
2019-05-18T14:50:37.320Z,2.80
2019-05-18T14:53:06.932Z,2.80
2019-05-18T14:55:36.375Z,3.50
2019-05-18T14:58:05.792Z,3.60
2019-05-18T15:00:35.201Z,4.85
2019-05-18T15:03:04.782Z,4.90
2019-05-18T15:05:34.219Z,5.58
2019-05-18T15:08:03.636Z,4.47
2019-05-18T15:10:33.139Z,5.45
2019-05-18T15:13:02.514Z,5.72
2019-05-18T15:15:31.860Z,5.72
2019-05-18T15:18:01.264Z,4.60
2019-05-18T15:20:30.703Z,4.47
2019-05-18T15:23:00.201Z,5.08
2019-05-18T15:25:29.716Z,3.47
2019-05-18T15:27:59.142Z,3.15
2019-05-18T15:30:30.007Z,3.72
2019-05-18T15:32:59.452Z,3.45
2019-05-18T15:35:28.861Z,3.83
2019-05-18T15:37:58.510Z,3.75
2019-05-18T15:40:27.957Z,5.83
2019-05-18T15:42:57.643Z,3.37
2019-05-18T15:45:27.111Z,5.67
2019-05-18T15:47:56.486Z,3.45
2019-05-18T15:50:25.969Z,2.22
2019-05-18T15:52:55.384Z,6.67
2019-05-18T15:55:24.940Z,3.10
2019-05-18T15:57:54.369Z,3.25
2019-05-18T16:00:24.032Z,2.50
2019-05-18T16:02:53.398Z,3.02
2019-05-18T16:05:22.813Z,3.42
2019-05-18T16:07:52.977Z,4.45
2019-05-18T16:10:22.409Z,3.35
2019-05-18T16:12:51.753Z,3.35
2019-05-18T16:15:21.275Z,3.17
2019-05-18T16:17:50.699Z,2.50
2019-05-18T16:20:20.301Z,4.10
2019-05-18T16:22:49.699Z,4.30
2019-05-18T16:25:19.886Z,3.12
2019-05-18T16:27:49.278Z,3.45
2019-05-18T16:30:18.919Z,3.00
2019-05-18T16:32:48.303Z,4.72
2019-05-18T16:35:17.811Z,2.95
2019-05-18T16:37:47.187Z,4.20
2019-05-18T16:40:16.877Z,3.85
2019-05-18T16:42:46.804Z,2.98
2019-05-18T16:45:16.861Z,1.95
2019-05-18T16:47:46.269Z,2.67
2019-05-18T16:50:15.941Z,7.25
2019-05-18T16:52:45.323Z,2.77
2019-05-18T16:55:15.161Z,2.55
2019-05-18T16:57:44.545Z,3.08
2019-05-18T17:00:16.239Z,3.55
2019-05-18T17:02:45.738Z,1.80
2019-05-18T17:05:15.827Z,4.37
2019-05-18T17:07:45.420Z,2.60
2019-05-18T17:10:15.375Z,2.95
2019-05-18T17:12:44.815Z,2.95
2019-05-18T17:15:15.289Z,2.30
2019-05-18T17:17:44.705Z,1.72
2019-05-18T17:20:14.256Z,1.92
2019-05-18T17:22:43.669Z,2.20
2019-05-18T17:25:13.152Z,3.15
2019-05-18T17:27:42.671Z,4.90
2019-05-18T17:30:12.678Z,2.45
2019-05-18T17:32:44.684Z,3.42
2019-05-18T17:35:14.339Z,2.87
2019-05-18T17:37:43.688Z,3.62
2019-05-18T17:40:13.071Z,5.15
2019-05-18T17:42:42.505Z,3.92
2019-05-18T17:45:12.317Z,3.65
2019-05-18T17:47:41.780Z,2.33
2019-05-18T17:50:11.447Z,4.55
2019-05-18T17:52:40.931Z,3.30
2019-05-18T17:55:10.732Z,3.42
2019-05-18T17:57:40.263Z,3.22
2019-05-18T18:00:10.946Z,4.25
2019-05-18T18:02:40.471Z,5.50
2019-05-18T18:05:10.974Z,8.88
2019-05-18T18:07:40.407Z,3.65
2019-05-18T18:10:10.102Z,5.10
2019-05-18T18:12:39.504Z,4.25
2019-05-18T18:15:09.924Z,4.92
2019-05-18T18:17:39.529Z,4.50
2019-05-18T18:20:09.331Z,3.83
2019-05-18T18:22:38.762Z,5.03
2019-05-18T18:25:08.327Z,2.95
2019-05-18T18:27:37.908Z,2.50
2019-05-18T18:30:07.574Z,6.30
2019-05-18T18:32:36.945Z,3.67
2019-05-18T18:35:06.475Z,2.85
2019-05-18T18:37:35.883Z,3.10
2019-05-18T18:40:05.612Z,3.25
2019-05-18T18:42:35.028Z,3.08
2019-05-18T18:45:04.696Z,7.42
2019-05-18T18:47:34.097Z,7.15
2019-05-18T18:50:03.628Z,4.47
2019-05-18T18:52:33.778Z,6.65
2019-05-18T18:55:03.218Z,8.03
2019-05-18T18:57:41.137Z,6.75
2019-05-18T19:00:03.668Z,6.92
2019-05-18T19:02:33.083Z,6.33
2019-05-18T19:05:02.504Z,7.33
2019-05-18T19:07:31.903Z,7.00
2019-05-18T19:10:01.344Z,13.83
2019-05-18T19:12:30.737Z,11.05
2019-05-18T19:15:00.204Z,9.78
2019-05-18T19:17:29.580Z,8.78
2019-05-18T19:19:59.004Z,6.10
2019-05-18T19:22:28.407Z,6.83
2019-05-18T19:24:57.794Z,6.53
2019-05-18T19:27:27.203Z,7.05
2019-05-18T19:29:56.555Z,5.60
2019-05-18T19:32:25.986Z,7.80
2019-05-18T19:34:55.382Z,8.98
2019-05-18T19:37:26.541Z,5.67
2019-05-18T19:39:56.028Z,5.05
2019-05-18T19:42:25.465Z,6.25
2019-05-18T19:44:54.836Z,4.78
2019-05-18T19:47:24.212Z,6.42
2019-05-18T19:49:53.599Z,4.62
2019-05-18T19:52:23.085Z,5.15
2019-05-18T19:54:52.520Z,5.65
2019-05-18T19:57:21.908Z,5.85
2019-05-18T19:59:51.328Z,7.92
2019-05-18T20:02:20.755Z,5.72
2019-05-18T20:05:06.323Z,6.20
2019-05-18T20:07:21.203Z,5.05
2019-05-18T20:09:52.901Z,4.75
2019-05-18T20:12:21.680Z,4.85
2019-05-18T20:14:51.150Z,5.10
2019-05-18T20:17:20.645Z,5.62
2019-05-18T20:19:50.017Z,7.87
2019-05-18T20:22:19.425Z,4.92
2019-05-18T20:24:48.807Z,4.12
2019-05-18T20:27:18.212Z,6.17
2019-05-18T20:29:47.619Z,4.72
2019-05-18T20:32:17.064Z,4.42
2019-05-18T20:34:46.454Z,5.03
2019-05-18T20:37:15.892Z,7.80
2019-05-18T20:39:45.368Z,9.48
2019-05-18T20:42:14.781Z,12.15
2019-05-18T20:44:44.182Z,10.05
2019-05-18T20:47:13.588Z,11.03
2019-05-18T20:49:42.988Z,7.08
2019-05-18T20:52:12.501Z,6.03
2019-05-18T20:54:41.948Z,7.28
2019-05-18T20:57:11.328Z,5.85
2019-05-18T20:59:40.775Z,5.72
2019-05-18T21:02:10.236Z,5.80
2019-05-18T21:04:39.656Z,7.22
2019-05-18T21:07:09.096Z,7.00
2019-05-18T21:09:38.505Z,7.03
2019-05-18T21:12:07.908Z,7.50
2019-05-18T21:14:37.306Z,6.53
2019-05-18T21:17:06.719Z,6.62
2019-05-18T21:19:36.106Z,6.53
2019-05-18T21:22:05.594Z,6.95
2019-05-18T21:24:34.993Z,6.12
2019-05-18T21:27:04.404Z,7.05
2019-05-18T21:29:33.771Z,6.33
2019-05-18T21:32:04.168Z,5.53
2019-05-18T21:34:33.560Z,7.10
2019-05-18T21:37:02.991Z,5.58
2019-05-18T21:39:32.469Z,5.08
2019-05-18T21:42:02.008Z,5.47
2019-05-18T21:44:31.414Z,7.37
2019-05-18T21:47:00.815Z,6.55
2019-05-18T21:49:30.252Z,6.60
2019-05-18T21:51:59.705Z,5.62
2019-05-18T21:54:29.379Z,5.15
2019-05-18T21:56:58.825Z,5.00
2019-05-18T21:59:28.236Z,6.42
2019-05-18T22:01:57.620Z,5.72
2019-05-18T22:04:27.033Z,6.47
2019-05-18T22:06:56.438Z,6.28
2019-05-18T22:09:25.956Z,5.53
2019-05-18T22:11:55.418Z,5.87
2019-05-18T22:14:24.825Z,5.67
2019-05-18T22:16:54.267Z,5.15
2019-05-18T22:19:23.677Z,5.03
2019-05-18T22:21:53.080Z,6.35
2019-05-18T22:24:22.514Z,5.08
2019-05-18T22:26:51.922Z,6.25
2019-05-18T22:29:21.379Z,6.72
2019-05-18T22:31:50.811Z,8.48
2019-05-18T22:34:20.199Z,8.75
2019-05-18T22:36:49.609Z,8.20
2019-05-18T22:39:19.012Z,7.33
2019-05-18T22:41:48.404Z,6.40
2019-05-18T22:44:17.792Z,7.08
2019-05-18T22:46:47.280Z,6.15
2019-05-18T22:49:16.702Z,5.58
2019-05-18T22:51:46.435Z,5.85
2019-05-18T22:54:15.891Z,6.03
2019-05-18T22:56:45.285Z,5.47
2019-05-18T22:59:14.672Z,6.15
2019-05-18T23:01:44.056Z,6.17
2019-05-18T23:04:13.520Z,5.47
2019-05-18T23:06:43.717Z,5.87
2019-05-18T23:09:13.103Z,5.95
2019-05-18T23:11:42.507Z,6.10
2019-05-18T23:14:11.875Z,6.30
2019-05-18T23:16:41.275Z,6.22
2019-05-18T23:19:10.682Z,6.28
2019-05-18T23:21:40.092Z,6.30
2019-05-18T23:24:09.524Z,6.05
2019-05-18T23:26:38.882Z,6.80
2019-05-18T23:29:08.295Z,6.40
2019-05-18T23:31:37.687Z,7.85
2019-05-18T23:34:07.043Z,5.97
2019-05-18T23:36:36.421Z,6.97
2019-05-18T23:39:06.755Z,6.42
2019-05-18T23:41:36.169Z,7.80
2019-05-18T23:44:05.739Z,6.72
2019-05-18T23:46:35.145Z,7.10
2019-05-18T23:49:10.762Z,6.27
2019-05-18T23:51:35.612Z,7.03
2019-05-18T23:54:05.254Z,7.55
2019-05-18T23:56:34.608Z,6.90
2019-05-18T23:59:04.159Z,7.15
